createdAt,value
2019-02-22T00:00:59.258Z,91.70
2019-02-22T00:03:27.789Z,91.80
2019-02-22T00:05:56.263Z,91.90
2019-02-22T00:08:24.659Z,91.80
2019-02-22T00:10:53.105Z,91.70
2019-02-22T00:13:22.704Z,91.70
2019-02-22T00:15:51.463Z,91.60
2019-02-22T00:18:25.718Z,91.50
2019-02-22T00:21:00.071Z,91.70
2019-02-22T00:23:28.480Z,91.70
2019-02-22T00:25:57.012Z,92.10
2019-02-22T00:28:25.379Z,91.70
2019-02-22T00:30:53.759Z,91.70
2019-02-22T00:33:22.646Z,91.60
2019-02-22T00:35:51.075Z,91.30
2019-02-22T00:38:19.461Z,91.30
2019-02-22T00:40:47.910Z,91.30
2019-02-22T00:43:16.262Z,91.20
2019-02-22T00:45:44.668Z,91.30
2019-02-22T00:48:14.001Z,91.10
2019-02-22T00:50:42.377Z,91.20
2019-02-22T00:53:10.764Z,91.30
2019-02-22T00:55:39.299Z,91.20
2019-02-22T00:58:11.325Z,91.20
2019-02-22T01:00:39.707Z,91.20
2019-02-22T01:03:08.098Z,91.20
2019-02-22T01:05:36.522Z,91.10
2019-02-22T01:08:05.818Z,91.10
2019-02-22T01:10:34.234Z,91.00
2019-02-22T01:13:02.660Z,91.00
2019-02-22T01:15:31.072Z,91.00
2019-02-22T01:17:59.540Z,90.90
2019-02-22T01:20:28.383Z,91.50
2019-02-22T01:22:57.728Z,91.00
2019-02-22T01:25:26.199Z,91.00
2019-02-22T01:27:54.600Z,90.60
2019-02-22T01:30:22.992Z,90.80
2019-02-22T01:32:51.595Z,90.80
2019-02-22T01:35:19.972Z,90.80
2019-02-22T01:37:48.365Z,90.80
2019-02-22T01:40:16.743Z,90.80
2019-02-22T01:42:47.184Z,90.90
2019-02-22T01:45:17.890Z,90.70
2019-02-22T01:47:46.251Z,89.90
2019-02-22T01:50:21.286Z,90.20
2019-02-22T01:52:49.665Z,90.30
2019-02-22T01:55:18.056Z,90.30
2019-02-22T01:57:46.480Z,90.20
2019-02-22T02:00:15.055Z,90.20
2019-02-22T02:02:43.451Z,89.90
2019-02-22T02:05:11.872Z,90.00
2019-02-22T02:07:40.261Z,88.90
2019-02-22T02:10:08.707Z,89.30
2019-02-22T02:12:37.136Z,89.50
2019-02-22T02:15:05.797Z,89.60
2019-02-22T02:17:34.176Z,89.60
2019-02-22T02:20:02.659Z,89.40
2019-02-22T02:22:31.079Z,89.60
2019-02-22T02:25:00.433Z,89.40
2019-02-22T02:27:29.122Z,89.10
2019-02-22T02:29:57.581Z,88.80
2019-02-22T02:32:25.962Z,89.00
2019-02-22T02:34:54.356Z,89.30
2019-02-22T02:37:22.762Z,89.50
2019-02-22T02:39:51.147Z,89.60
2019-02-22T02:42:19.546Z,90.00
2019-02-22T02:44:47.923Z,88.10
2019-02-22T02:47:16.352Z,87.30
2019-02-22T02:49:44.732Z,88.20
2019-02-22T02:52:13.359Z,88.70
2019-02-22T02:54:41.762Z,89.20
2019-02-22T02:57:10.150Z,89.30
2019-02-22T02:59:38.589Z,89.00
2019-02-22T03:02:08.684Z,88.50
2019-02-22T03:04:37.008Z,90.00
2019-02-22T03:07:10.041Z,89.60
2019-02-22T03:09:38.455Z,89.80
2019-02-22T03:12:08.296Z,89.80
2019-02-22T03:14:36.714Z,89.40
2019-02-22T03:17:05.162Z,89.50
2019-02-22T03:19:33.552Z,89.50
2019-02-22T03:22:01.950Z,89.30
2019-02-22T03:24:30.422Z,89.00
2019-02-22T03:26:58.877Z,89.40
2019-02-22T03:29:27.370Z,88.40
2019-02-22T03:31:55.815Z,88.20
2019-02-22T03:34:24.231Z,88.00
2019-02-22T03:36:52.635Z,87.70
2019-02-22T03:39:21.029Z,87.10
2019-02-22T03:41:49.470Z,86.70
2019-02-22T03:44:17.938Z,86.30
2019-02-22T03:46:46.745Z,86.10
2019-02-22T03:49:15.178Z,85.30
2019-02-22T03:51:43.558Z,85.50
2019-02-22T03:54:11.996Z,84.90
2019-02-22T03:56:40.447Z,85.30
2019-02-22T03:59:08.825Z,85.40
2019-02-22T04:01:37.308Z,85.20
2019-02-22T04:04:05.765Z,85.60
2019-02-22T04:06:34.157Z,85.60
2019-02-22T04:09:02.669Z,85.00
2019-02-22T04:11:31.070Z,85.20
2019-02-22T04:13:59.551Z,86.00
2019-02-22T04:16:28.465Z,84.80
2019-02-22T04:18:56.853Z,83.70
2019-02-22T04:21:25.291Z,83.30
2019-02-22T04:23:53.664Z,83.70
2019-02-22T04:26:22.074Z,83.10
2019-02-22T04:28:54.181Z,82.20
2019-02-22T04:31:23.496Z,82.10
2019-02-22T04:33:51.892Z,82.00
2019-02-22T04:36:20.718Z,83.20
2019-02-22T04:38:49.130Z,82.30
2019-02-22T04:41:17.541Z,81.60
2019-02-22T04:43:45.975Z,80.60
2019-02-22T04:46:14.365Z,81.30
2019-02-22T04:48:42.798Z,82.10
2019-02-22T04:51:11.186Z,82.80
2019-02-22T04:53:40.564Z,82.90
2019-02-22T04:56:08.957Z,82.80
2019-02-22T04:58:37.376Z,82.00
2019-02-22T05:01:05.818Z,82.50
2019-02-22T05:03:34.204Z,82.70
2019-02-22T05:06:03.603Z,82.60
2019-02-22T05:08:32.409Z,82.70
2019-02-22T05:11:00.786Z,83.00
2019-02-22T05:13:29.189Z,82.40
2019-02-22T05:15:57.716Z,82.00
2019-02-22T05:18:26.182Z,82.40
2019-02-22T05:20:55.002Z,80.60
2019-02-22T05:23:23.383Z,80.60
2019-02-22T05:25:51.818Z,81.00
2019-02-22T05:28:21.265Z,80.70
2019-02-22T05:30:49.931Z,80.40
2019-02-22T05:33:18.719Z,80.70
2019-02-22T05:35:47.601Z,80.30
2019-02-22T05:38:17.057Z,79.40
2019-02-22T05:40:45.486Z,79.90
2019-02-22T05:43:13.868Z,78.70
2019-02-22T05:45:42.278Z,78.40
2019-02-22T05:48:10.665Z,79.00
2019-02-22T05:50:39.539Z,79.30
2019-02-22T05:53:07.994Z,79.40
2019-02-22T05:55:36.388Z,79.90
2019-02-22T05:58:04.747Z,80.40
2019-02-22T06:00:33.203Z,79.60
2019-02-22T06:03:01.590Z,78.80
2019-02-22T06:05:29.986Z,79.30
2019-02-22T06:07:59.373Z,79.80
2019-02-22T06:10:28.763Z,80.10
2019-02-22T06:12:58.198Z,78.40
2019-02-22T06:15:26.645Z,78.80
2019-02-22T06:17:55.406Z,79.20
2019-02-22T06:20:23.782Z,78.90
2019-02-22T06:22:53.146Z,77.50
2019-02-22T06:25:22.525Z,77.30
2019-02-22T06:27:52.013Z,77.20
2019-02-22T06:30:20.530Z,77.70
2019-02-22T06:32:48.941Z,77.30
2019-02-22T06:35:19.302Z,75.80
2019-02-22T06:37:48.106Z,76.00
2019-02-22T06:40:16.530Z,75.60
2019-02-22T06:42:46.061Z,74.80
2019-02-22T06:45:18.011Z,74.70
2019-02-22T06:47:47.360Z,73.10
2019-02-22T06:50:15.786Z,73.20
2019-02-22T06:52:44.192Z,73.60
2019-02-22T06:55:12.574Z,72.70
2019-02-22T06:57:41.014Z,72.90
2019-02-22T07:00:11.852Z,73.20
2019-02-22T07:02:40.226Z,73.00
2019-02-22T07:05:08.725Z,73.70
2019-02-22T07:07:37.133Z,73.40
2019-02-22T07:10:08.520Z,73.10
2019-02-22T07:12:38.595Z,72.90
2019-02-22T07:15:10.328Z,72.60
2019-02-22T07:17:38.756Z,73.20
2019-02-22T07:20:09.506Z,72.30
2019-02-22T07:22:37.925Z,72.50
2019-02-22T07:25:09.256Z,73.00
2019-02-22T07:27:38.087Z,70.40
2019-02-22T07:30:11.057Z,72.40
2019-02-22T07:32:39.732Z,67.80
2019-02-22T07:35:09.815Z,66.60
2019-02-22T07:37:38.366Z,62.20
2019-02-22T07:40:06.897Z,53.30
2019-02-22T07:42:35.346Z,49.30
2019-02-22T07:45:04.079Z,45.20
2019-02-22T07:47:32.538Z,44.70
2019-02-22T07:50:00.895Z,43.20
2019-02-22T07:52:30.211Z,40.70
2019-02-22T07:54:58.654Z,37.60
2019-02-22T07:57:27.064Z,38.40
2019-02-22T07:59:55.474Z,36.30
2019-02-22T08:02:23.914Z,35.70
2019-02-22T08:04:52.298Z,33.80
2019-02-22T08:07:20.693Z,32.90
2019-02-22T08:09:49.149Z,35.50
2019-02-22T08:12:17.559Z,33.40
2019-02-22T08:14:45.957Z,33.50
2019-02-22T08:17:14.760Z,32.40
2019-02-22T08:19:43.256Z,30.00
2019-02-22T08:22:11.638Z,28.90
2019-02-22T08:24:40.099Z,28.30
2019-02-22T08:27:08.454Z,30.00
2019-02-22T08:29:38.332Z,29.90
2019-02-22T08:32:07.045Z,29.50
2019-02-22T08:34:35.427Z,27.90
2019-02-22T08:37:03.813Z,27.30
2019-02-22T08:39:32.618Z,29.10
2019-02-22T08:42:01.004Z,27.50
2019-02-22T08:44:29.593Z,25.80
2019-02-22T08:46:58.014Z,24.40
2019-02-22T08:49:26.500Z,25.30
2019-02-22T08:51:54.877Z,25.90
2019-02-22T08:54:23.273Z,24.00
2019-02-22T08:56:51.675Z,23.50
2019-02-22T08:59:20.071Z,24.20
2019-02-22T09:01:48.515Z,24.50
2019-02-22T09:04:16.909Z,22.70
2019-02-22T09:06:45.342Z,22.40
2019-02-22T09:09:13.736Z,22.20
2019-02-22T09:11:42.128Z,22.80
2019-02-22T09:14:10.565Z,22.80
2019-02-22T09:16:38.961Z,24.90
2019-02-22T09:19:07.371Z,24.90
2019-02-22T09:21:35.793Z,23.40
2019-02-22T09:24:07.525Z,22.20
2019-02-22T09:26:35.927Z,24.50
2019-02-22T09:29:04.404Z,23.70
2019-02-22T09:31:32.813Z,23.20
2019-02-22T09:34:01.198Z,23.70
2019-02-22T09:36:29.647Z,25.20
2019-02-22T09:38:58.037Z,22.30
2019-02-22T09:41:26.432Z,22.60
2019-02-22T09:43:55.835Z,21.30
2019-02-22T09:46:24.383Z,19.70
2019-02-22T09:48:52.845Z,20.80
2019-02-22T09:51:21.236Z,21.10
2019-02-22T09:53:49.652Z,21.50
2019-02-22T09:56:18.086Z,21.80
2019-02-22T09:58:46.482Z,21.90
2019-02-22T10:01:14.901Z,23.20
2019-02-22T10:03:43.308Z,23.00
2019-02-22T10:06:11.687Z,22.10
2019-02-22T10:08:40.111Z,22.30
2019-02-22T10:11:08.553Z,22.40
2019-02-22T10:13:36.969Z,21.70
2019-02-22T10:16:05.425Z,23.50
2019-02-22T10:18:33.809Z,26.10
2019-02-22T10:21:02.211Z,27.30
2019-02-22T10:23:30.612Z,26.70
2019-02-22T10:25:59.056Z,26.50
2019-02-22T10:28:27.515Z,26.90
2019-02-22T10:30:55.868Z,28.30
2019-02-22T10:33:24.311Z,29.30
2019-02-22T10:35:52.705Z,31.30
2019-02-22T10:38:21.101Z,32.80
2019-02-22T10:40:49.497Z,34.10
2019-02-22T10:43:19.198Z,34.00
2019-02-22T10:45:47.648Z,33.50
2019-02-22T10:48:16.049Z,34.10
2019-02-22T10:50:44.530Z,34.30
2019-02-22T10:53:12.942Z,35.30
2019-02-22T10:55:41.372Z,36.50
2019-02-22T10:58:09.892Z,37.90
2019-02-22T11:00:38.568Z,39.20
2019-02-22T11:03:06.937Z,39.10
2019-02-22T11:05:35.494Z,37.80
2019-02-22T11:08:03.872Z,37.50
2019-02-22T11:10:32.279Z,38.40
2019-02-22T11:13:00.725Z,39.70
2019-02-22T11:15:29.193Z,39.90
2019-02-22T11:17:57.600Z,40.40
2019-02-22T11:20:25.995Z,40.70
2019-02-22T11:22:54.426Z,40.50
2019-02-22T11:25:22.822Z,40.70
2019-02-22T11:27:51.245Z,41.00
2019-02-22T11:30:19.621Z,41.20
2019-02-22T11:32:48.073Z,41.30
2019-02-22T11:35:16.541Z,42.20
2019-02-22T11:37:44.911Z,41.70
2019-02-22T11:40:13.313Z,42.00
2019-02-22T11:42:41.707Z,41.80
2019-02-22T11:45:10.526Z,41.80
2019-02-22T11:47:38.938Z,42.20
2019-02-22T11:50:09.728Z,42.40
2019-02-22T11:52:38.454Z,42.50
2019-02-22T11:55:08.332Z,42.10
2019-02-22T11:57:36.742Z,42.10
2019-02-22T12:00:09.680Z,42.20
2019-02-22T12:02:38.053Z,42.70
2019-02-22T12:05:06.451Z,42.90
2019-02-22T12:07:34.906Z,41.90
2019-02-22T12:10:03.304Z,41.90
2019-02-22T12:12:33.209Z,42.60
2019-02-22T12:15:02.058Z,42.50
2019-02-22T12:17:30.562Z,43.00
2019-02-22T12:19:59.048Z,42.30
2019-02-22T12:22:27.499Z,42.40
2019-02-22T12:24:55.890Z,42.00
2019-02-22T12:27:24.269Z,42.40
2019-02-22T12:29:52.669Z,42.60
2019-02-22T12:32:21.053Z,42.40
2019-02-22T12:34:49.480Z,41.80
2019-02-22T12:37:18.134Z,42.00
2019-02-22T12:39:46.954Z,42.40
2019-02-22T12:42:15.340Z,42.60
2019-02-22T12:44:43.765Z,42.50
2019-02-22T12:47:12.193Z,41.80
2019-02-22T12:49:40.631Z,41.30
2019-02-22T12:52:08.990Z,41.40
2019-02-22T12:54:43.321Z,41.50
2019-02-22T12:57:12.734Z,42.20
2019-02-22T12:59:41.146Z,42.70
2019-02-22T13:02:10.517Z,42.70
2019-02-22T13:04:38.874Z,42.80
2019-02-22T13:07:07.338Z,42.60
2019-02-22T13:09:36.955Z,42.90
2019-02-22T13:12:13.682Z,43.10
2019-02-22T13:14:35.639Z,42.50
2019-02-22T13:17:04.018Z,42.00
2019-02-22T13:19:32.468Z,42.70
2019-02-22T13:22:00.858Z,42.70
2019-02-22T13:24:29.321Z,42.60
2019-02-22T13:26:58.178Z,41.60
2019-02-22T13:29:26.571Z,43.00
2019-02-22T13:31:55.379Z,42.60
2019-02-22T13:34:23.793Z,42.70
2019-02-22T13:36:52.201Z,42.50
2019-02-22T13:39:20.607Z,42.30
2019-02-22T13:41:49.020Z,42.00
2019-02-22T13:44:17.453Z,41.90
2019-02-22T13:46:45.836Z,41.30
2019-02-22T13:49:14.266Z,41.20
2019-02-22T13:51:43.013Z,40.70
2019-02-22T13:54:11.455Z,40.90
2019-02-22T13:56:39.869Z,40.60
2019-02-22T13:59:08.293Z,41.00
2019-02-22T14:01:36.682Z,41.40
2019-02-22T14:04:05.079Z,41.90
2019-02-22T14:06:34.456Z,40.90
2019-02-22T14:09:03.656Z,39.70
2019-02-22T14:11:32.047Z,40.30
2019-02-22T14:14:00.433Z,40.70
2019-02-22T14:16:29.295Z,41.10
2019-02-22T14:18:57.645Z,41.20
2019-02-22T14:21:26.045Z,41.40
2019-02-22T14:23:54.459Z,42.00
2019-02-22T14:26:22.834Z,42.60
2019-02-22T14:28:52.222Z,43.10
2019-02-22T14:31:20.618Z,43.60
2019-02-22T14:33:49.044Z,43.60
2019-02-22T14:36:17.476Z,43.50
2019-02-22T14:38:46.873Z,43.80
2019-02-22T14:41:15.527Z,44.10
2019-02-22T14:43:43.940Z,44.30
2019-02-22T14:46:12.305Z,44.40
2019-02-22T14:48:40.706Z,44.40
2019-02-22T14:51:09.181Z,44.20
2019-02-22T14:53:38.440Z,44.10
2019-02-22T14:56:06.842Z,44.00
2019-02-22T14:58:35.269Z,43.80
2019-02-22T15:01:03.648Z,43.60
2019-02-22T15:03:32.066Z,43.90
2019-02-22T15:06:00.476Z,44.00
2019-02-22T15:08:28.869Z,44.10
2019-02-22T15:10:57.263Z,44.00
2019-02-22T15:13:25.692Z,44.20
2019-02-22T15:16:11.964Z,44.40
2019-02-22T15:18:40.535Z,44.50
2019-02-22T15:21:08.968Z,44.50
2019-02-22T15:23:38.782Z,44.60
2019-02-22T15:26:07.287Z,44.70
2019-02-22T15:28:35.691Z,44.70
2019-02-22T15:31:04.218Z,44.60
2019-02-22T15:33:32.787Z,44.60
2019-02-22T15:36:01.204Z,44.70
2019-02-22T15:38:29.553Z,45.00
2019-02-22T15:40:58.131Z,45.30
2019-02-22T15:43:26.548Z,45.40
2019-02-22T15:45:54.911Z,45.70
2019-02-22T15:48:23.428Z,45.90
2019-02-22T15:50:51.809Z,46.10
2019-02-22T15:53:20.199Z,46.40
2019-02-22T15:55:48.890Z,46.70
2019-02-22T15:58:17.292Z,47.00
2019-02-22T16:00:46.076Z,47.20
2019-02-22T16:03:15.006Z,47.80
2019-02-22T16:05:45.522Z,48.10
2019-02-22T16:08:13.921Z,48.40
2019-02-22T16:10:42.390Z,48.50
2019-02-22T16:13:10.803Z,48.60
2019-02-22T16:15:40.658Z,48.80
2019-02-22T16:18:09.373Z,49.00
2019-02-22T16:20:37.738Z,49.30
2019-02-22T16:23:06.130Z,49.50
2019-02-22T16:25:34.537Z,49.80
2019-02-22T16:28:03.051Z,50.00
2019-02-22T16:30:32.143Z,50.10
2019-02-22T16:33:00.544Z,50.30
2019-02-22T16:35:28.980Z,50.60
2019-02-22T16:37:57.371Z,50.80
2019-02-22T16:40:25.768Z,51.50
2019-02-22T16:42:54.260Z,51.70
2019-02-22T16:45:22.657Z,51.30
2019-02-22T16:47:51.039Z,51.50
2019-02-22T16:50:19.507Z,51.70
2019-02-22T16:52:48.385Z,51.80
2019-02-22T16:55:16.769Z,51.90
2019-02-22T16:57:45.258Z,52.10
2019-02-22T17:00:15.074Z,52.90
2019-02-22T17:02:43.903Z,52.80
2019-02-22T17:05:14.598Z,52.60
2019-02-22T17:07:43.030Z,52.60
2019-02-22T17:10:11.598Z,52.70
2019-02-22T17:12:40.523Z,52.70
2019-02-22T17:15:11.066Z,52.60
2019-02-22T17:17:39.455Z,52.80
2019-02-22T17:20:16.132Z,53.00
2019-02-22T17:22:44.596Z,53.10
2019-02-22T17:25:15.980Z,53.10
2019-02-22T17:27:44.452Z,53.50
2019-02-22T17:30:15.305Z,53.40
2019-02-22T17:32:43.689Z,53.40
2019-02-22T17:35:12.644Z,53.30
2019-02-22T17:37:41.390Z,53.40
2019-02-22T17:40:15.527Z,53.50
2019-02-22T17:42:44.063Z,53.50
2019-02-22T17:45:12.505Z,53.70
2019-02-22T17:47:41.343Z,53.70
2019-02-22T17:50:10.292Z,53.90
2019-02-22T17:52:38.713Z,53.90
2019-02-22T17:55:08.871Z,54.00
2019-02-22T17:57:37.280Z,54.10
2019-02-22T18:00:10.620Z,54.20
2019-02-22T18:02:40.164Z,54.30
2019-02-22T18:05:08.548Z,54.50
2019-02-22T18:07:36.995Z,54.50
2019-02-22T18:10:07.985Z,54.50
2019-02-22T18:12:36.461Z,54.70
2019-02-22T18:15:09.801Z,54.70
2019-02-22T18:17:38.318Z,54.70
2019-02-22T18:20:08.428Z,55.00
2019-02-22T18:22:36.818Z,54.80
2019-02-22T18:25:09.696Z,54.80
2019-02-22T18:27:38.226Z,54.90
2019-02-22T18:30:13.089Z,54.90
2019-02-22T18:32:42.039Z,54.80
2019-02-22T18:35:10.428Z,54.90
2019-02-22T18:37:38.850Z,54.90
2019-02-22T18:40:10.574Z,54.90
2019-02-22T18:42:39.004Z,54.90
2019-02-22T18:45:08.838Z,54.90
2019-02-22T18:47:37.276Z,54.80
2019-02-22T18:50:10.125Z,54.90
2019-02-22T18:52:38.524Z,54.90
2019-02-22T18:55:11.193Z,54.90
2019-02-22T18:57:40.088Z,55.00
2019-02-22T19:00:18.100Z,55.00
2019-02-22T19:02:46.507Z,54.40
2019-02-22T19:05:14.918Z,55.00
2019-02-22T19:07:43.366Z,54.90
2019-02-22T19:10:16.656Z,55.00
2019-02-22T19:12:45.049Z,55.00
2019-02-22T19:15:14.410Z,55.00
2019-02-22T19:17:42.815Z,55.00
2019-02-22T19:20:16.062Z,55.20
2019-02-22T19:22:44.485Z,55.20
2019-02-22T19:25:12.912Z,55.20
2019-02-22T19:27:41.345Z,55.10
2019-02-22T19:30:12.498Z,55.20
2019-02-22T19:32:40.931Z,55.20
2019-02-22T19:35:09.318Z,55.20
2019-02-22T19:37:37.717Z,55.20
2019-02-22T19:40:16.048Z,55.10
2019-02-22T19:42:45.140Z,55.10
2019-02-22T19:45:13.657Z,55.10
2019-02-22T19:47:42.566Z,55.10
2019-02-22T19:50:13.615Z,55.20
2019-02-22T19:52:50.100Z,55.10
2019-02-22T19:55:19.475Z,55.20
2019-02-22T19:57:48.173Z,55.10
2019-02-22T20:00:17.537Z,55.10
2019-02-22T20:02:45.984Z,55.00
2019-02-22T20:05:15.018Z,55.10
2019-02-22T20:07:44.274Z,55.00
2019-02-22T20:10:18.132Z,55.20
2019-02-22T20:12:45.421Z,55.10
2019-02-22T20:15:15.562Z,55.10
2019-02-22T20:17:53.227Z,55.20
2019-02-22T20:20:18.463Z,55.40
2019-02-22T20:22:46.834Z,55.60
2019-02-22T20:25:15.276Z,55.60
2019-02-22T20:27:43.666Z,55.70
2019-02-22T20:30:15.318Z,55.80
2019-02-22T20:32:43.792Z,55.90
2019-02-22T20:35:24.398Z,55.90
2019-02-22T20:37:53.461Z,55.90
2019-02-22T20:40:21.987Z,56.20
2019-02-22T20:42:50.757Z,56.20
2019-02-22T20:45:19.179Z,56.30
2019-02-22T20:47:47.623Z,56.40
2019-02-22T20:50:15.997Z,56.50
2019-02-22T20:52:45.373Z,56.70
2019-02-22T20:55:14.387Z,56.90
2019-02-22T20:57:43.260Z,56.90
2019-02-22T21:00:22.921Z,57.00
2019-02-22T21:02:52.324Z,57.10
2019-02-22T21:05:21.706Z,57.10
2019-02-22T21:07:50.146Z,57.30
2019-02-22T21:10:19.465Z,57.50
2019-02-22T21:12:48.900Z,57.50
2019-02-22T21:15:17.307Z,57.50
2019-02-22T21:17:45.703Z,57.50
2019-02-22T21:20:15.866Z,57.70
2019-02-22T21:22:44.286Z,57.80
2019-02-22T21:25:12.833Z,57.80
2019-02-22T21:27:41.211Z,58.10
2019-02-22T21:30:12.445Z,58.00
2019-02-22T21:32:42.064Z,58.10
2019-02-22T21:35:10.517Z,58.00
2019-02-22T21:37:40.060Z,58.10
2019-02-22T21:40:10.238Z,58.10
2019-02-22T21:42:38.965Z,58.30
2019-02-22T21:45:10.133Z,58.30
2019-02-22T21:47:38.584Z,58.30
2019-02-22T21:50:12.998Z,58.50
2019-02-22T21:52:41.481Z,58.30
2019-02-22T21:55:12.145Z,58.30
2019-02-22T21:57:40.539Z,58.40
2019-02-22T22:00:20.926Z,58.50
2019-02-22T22:02:49.661Z,58.00
2019-02-22T22:05:20.085Z,58.60
2019-02-22T22:07:50.430Z,58.70
2019-02-22T22:10:19.960Z,58.70
2019-02-22T22:12:48.367Z,58.70
2019-02-22T22:15:16.842Z,58.80
2019-02-22T22:17:45.179Z,58.70
2019-02-22T22:20:13.653Z,58.80
2019-02-22T22:22:45.473Z,58.80
2019-02-22T22:25:15.989Z,58.80
2019-02-22T22:27:44.430Z,58.80
2019-02-22T22:30:14.851Z,58.90
2019-02-22T22:32:43.268Z,59.00
2019-02-22T22:35:19.339Z,59.00
2019-02-22T22:37:48.115Z,59.10
2019-02-22T22:40:16.553Z,59.10
2019-02-22T22:42:45.020Z,59.20
2019-02-22T22:45:14.670Z,59.20
2019-02-22T22:47:43.070Z,59.30
2019-02-22T22:50:13.031Z,59.30
2019-02-22T22:52:41.449Z,59.40
2019-02-22T22:55:10.697Z,59.40
2019-02-22T22:57:41.080Z,59.40
2019-02-22T23:00:19.269Z,59.50
2019-02-22T23:02:47.719Z,59.50
2019-02-22T23:05:17.159Z,59.60
2019-02-22T23:07:45.841Z,59.70
2019-02-22T23:10:14.313Z,59.60
2019-02-22T23:12:50.774Z,59.80
2019-02-22T23:15:19.293Z,59.80
2019-02-22T23:17:47.751Z,60.00
2019-02-22T23:20:17.117Z,60.20
2019-02-22T23:22:46.496Z,60.10
2019-02-22T23:25:15.082Z,60.10
2019-02-22T23:27:43.607Z,60.30
2019-02-22T23:30:12.009Z,60.20
2019-02-22T23:32:40.962Z,60.40
2019-02-22T23:35:10.569Z,60.50
2019-02-22T23:37:38.969Z,60.80
2019-02-22T23:40:07.353Z,60.70
2019-02-22T23:42:36.937Z,60.70
2019-02-22T23:45:05.763Z,60.80
2019-02-22T23:47:34.161Z,60.80
2019-02-22T23:50:02.674Z,60.60
2019-02-22T23:52:31.090Z,60.90
2019-02-22T23:54:59.539Z,61.00
2019-02-22T23:57:28.069Z,61.00
2019-02-22T23:59:56.463Z,61.00
